AirNav   Duncan Aviation - Near you to keep you flying
 
 580 users online  

TX69 Southwest General Hospital Heliport
San Antonio, Texas, USA

GOING TO SAN ANTONIO?


FAA INFORMATION EFFECTIVE 26 JANUARY 2023

Location

FAA Identifier: TX69
Lat/Long: 29-21-07.7200N 098-32-41.7900W
29-21.128667N 098-32.696500W
29.3521444,-98.5449417
(estimated)
Elevation: 657 ft. / 200 m (estimated)
From city: 5 miles SSW of SAN ANTONIO, TX
Time zone: UTC -6 (UTC -5 during Daylight Saving Time)
Zip code: 78211

Heliport Operations

Heliport use: Private use. Permission required prior to landing
Activation date: 12/2007
Control tower: no
ARTCC: HOUSTON CENTER
FSS: SAN ANGELO FLIGHT SERVICE STATION
Attendance: CONTINUOUS
Wind indicator: yes
Segmented circle: no

Heliport Communications

WX ASOS at SSF (4 nm E): PHONE 210-927-9391
WX ASOS at SAT (12 nm N): PHONE 210-805-5583
WX AWOS-3 at CVB (16 nm W): 119.25 (830-931-0232)

Nearby radio navigation aids

VOR radial/distance  VOR name  Freq  Var
SSFr308/(7.7)STINSON VOR108.4009E
RNDr229/16.9RANDOLPH VORTAC112.3005E
SATr186/18.0SAN ANTONIO VORTAC116.8008E

 
NDB name  Hdg/Dist  Freq  Var  ID
DEVINE051/24.335907EHHH .... .... ....

Heliport Services

Runway Information

Helipad H1

Dimensions: 50 x 50 ft. / 15 x 15 m
Surface: concrete
Latitude: 29-21.128667N
Longitude: 098-32.696500W
Elevation: 657.0 ft.
Traffic pattern: leftleft

Heliport Ownership and Management from official FAA records

Ownership: Privately-owned
Owner: SOUTHWEST GENERAL HOSPITAL
7400 BARLITE BLVD
SAN ANTONIO, TX 78224
Phone 210-921-3536
Manager: AMANDA SIFUENTES, DIRECTOR
7400 BARLITE BLVD
SAN ANTONIO, TX 78224
Phone (210) 921-3598

Additional Remarks

FOR CD CTC SAN ANTONIO APCH AT 210-805-5516.

Instrument Procedures

There are no published instrument procedures at TX69.

Some nearby airports with instrument procedures:

KSKF - Kelly Field Airport (3 nm NW)
KSSF - Stinson Municipal Airport (4 nm E)
KSAT - San Antonio International Airport (12 nm N)
KCVB - Castroville Municipal Airport (16 nm W)
KRND - Randolph Air Force Base (18 nm NE)
 
Loc | Ops | Rwys | IFR | FBO | Links
Com | Nav | Svcs | Stats | Notes
Aerial photo
No photo
 
Sectional chart

 
Airport distance calculator
Flying to Southwest General Hospital Heliport? Find the distance to fly.

From to TX69

Sunrise and sunset
Times for 29-Jan-2023
 Local
(UTC-6)
 Zulu
(UTC)
Morning civil twilight07:0113:01
Sunrise07:2613:26
Sunset18:0900:09
Evening civil twilight18:3400:34

Current date and time
Zulu (UTC)  29-Jan-2023 10:02:35
Local (UTC-6)  29-Jan-2023 04:02:35
 
METAR
KSKF 290955Z AUTO 17004KT 3SM BR OVC005 17/17 A2994 RMK AO2 SLP136 T01720167 $
KSSF 
4nm E 
290953Z AUTO 18009KT 10SM OVC007 19/18 A2994 RMK AO2 CIG 005V010 SLP134 T01890183
KSAT 
12nm N 
290951Z 17003KT 1SM R13R/P6000FT -DZ BR OVC003 17/17 A2997 RMK AO2 TWR VIS 1 1/4 SLP135 P0000 T01720172
KCVB 
16nm W 
290936Z AUTO 00000KT M1/4SM FG OVC003 17/17 A2998 RMK AO2
KRND 
18nm NE 
290955Z AUTO 19008KT 10SM OVC005 19/18 A2993 RMK AO2 SLP131 T01850183
TAF
KSKF 290445Z 2904/3008 VRB06KT 3200 BR OVC005 QNH2997INS BECMG 2905/2906 16006KT 0800 -DZ FG OVC005 QNH2992INS TEMPO 2907/2911 VRB06KT 0300 DZ FG VV001 BECMG 2912/2913 VRB06KT 0500 -RADZ FG VV002 QNH2993INS BECMG 2915/2916 02006KT 2400 BR OVC007 QNH2996INS BECMG 2917/2918 34006KT 4800 BR BKN010 OVC018 QNH2992INS BECMG 2920/2921 04006KT 6000 BR BKN022 OVC040 QNH2992INS BECMG 3003/3004 04010G15KT 9999 NSW BKN020 OVC030 QNH3004INS TX23/2921Z TN14/2904Z LAST NO AMDS AFT 2906 NEXT 2910
KSSF 
4nm E 
290526Z 2906/3006 16004KT 1 1/2SM -DZ BR OVC003 FM290700 17004KT 1/2SM -DZ FG OVC003 FM291500 VRB05KT 4SM -SHRA OVC008 FM291800 04008KT P6SM -SHRA OVC015 FM300000 03012KT P6SM BKN025
KSAT 
12nm N 
290653Z 2907/3012 00000KT 1/4SM -DZ FG VV002 FM291500 VRB05KT 4SM -SHRA OVC008 FM291800 04008KT P6SM -SHRA OVC015 FM300000 03012KT P6SM BKN025 FM300600 03010KT P6SM BKN015
NOTAMs
Click for the latest NOTAMs
NOTAMs are issued by the DoD/FAA and will open in a separate window not controlled by AirNav.

 

 
 

Would you like to see your business listed on this page?

 If your business provides an interesting product or service to pilots, flight crews, aircraft, or users of the Southwest General Hospital Heliport, you should consider listing it here.  To start the listing process, click on the button below
 
Add a business
 

Other Pages about Southwest General Hospital Heliport

Update a link
 
Copyright © AirNav, LLC. All rights reserved. Privacy Policy  Contact